createdAt,value
2023-05-08T00:01:01.578Z,8.40
2023-05-08T00:03:28.207Z,7.90
2023-05-08T00:05:55.642Z,9.68
2023-05-08T00:08:22.065Z,9.05
2023-05-08T00:10:48.778Z,8.30
2023-05-08T00:13:15.388Z,9.32
2023-05-08T00:15:41.909Z,8.82
2023-05-08T00:18:08.446Z,9.25
2023-05-08T00:20:34.807Z,8.68
2023-05-08T00:23:01.159Z,9.45
2023-05-08T00:25:27.729Z,9.20
2023-05-08T00:27:54.236Z,9.05
2023-05-08T00:30:21.206Z,9.05
2023-05-08T00:32:47.600Z,8.43
2023-05-08T00:35:14.022Z,8.93
2023-05-08T00:37:43.671Z,8.38
2023-05-08T00:40:11.539Z,10.07
2023-05-08T00:42:38.357Z,9.00
2023-05-08T00:45:05.095Z,9.13
2023-05-08T00:47:31.819Z,9.02
2023-05-08T00:49:59.918Z,8.88
2023-05-08T00:52:29.545Z,8.57
2023-05-08T00:54:56.218Z,8.77
2023-05-08T00:57:23.600Z,8.48
2023-05-08T00:59:50.217Z,9.30
2023-05-08T01:02:16.785Z,9.68
2023-05-08T01:04:44.861Z,9.07
2023-05-08T01:07:11.653Z,9.00
2023-05-08T01:09:37.990Z,8.23
2023-05-08T01:12:22.536Z,8.55
2023-05-08T01:15:08.059Z,9.75
2023-05-08T01:18:00.465Z,8.25
2023-05-08T01:20:55.267Z,8.40
2023-05-08T01:23:53.716Z,9.13
2023-05-08T01:26:25.956Z,8.40
2023-05-08T01:29:25.451Z,8.43
2023-05-08T01:32:12.326Z,8.68
2023-05-08T01:34:49.917Z,10.10
2023-05-08T01:37:21.764Z,9.20
2023-05-08T01:39:59.084Z,9.77
2023-05-08T01:42:28.429Z,9.13
2023-05-08T01:44:59.962Z,8.35
2023-05-08T01:47:30.932Z,8.20
2023-05-08T01:50:08.726Z,8.55
2023-05-08T01:52:42.818Z,9.25
2023-05-08T01:55:12.162Z,8.45
2023-05-08T01:57:44.842Z,8.98
2023-05-08T02:00:12.248Z,8.77
2023-05-08T02:02:40.001Z,8.60
2023-05-08T02:05:08.651Z,8.52
2023-05-08T02:07:38.048Z,8.82
2023-05-08T02:10:06.158Z,9.20
2023-05-08T02:12:32.870Z,9.45
2023-05-08T02:15:01.033Z,8.55
2023-05-08T02:17:28.843Z,8.40
2023-05-08T02:19:58.135Z,8.23
2023-05-08T02:22:26.158Z,8.00
2023-05-08T02:24:57.928Z,9.40
2023-05-08T02:27:30.169Z,8.00
2023-05-08T02:29:57.368Z,8.48
2023-05-08T02:32:25.678Z,8.02
2023-05-08T02:35:02.407Z,8.00
2023-05-08T02:37:31.015Z,8.48
2023-05-08T02:39:58.491Z,8.52
2023-05-08T02:42:25.327Z,8.68
2023-05-08T02:44:51.711Z,8.15
2023-05-08T02:47:25.841Z,8.60
2023-05-08T02:50:00.200Z,9.32
2023-05-08T02:52:35.052Z,7.95
2023-05-08T02:55:14.930Z,7.70
2023-05-08T02:57:57.011Z,8.05
2023-05-08T03:00:30.583Z,8.13
2023-05-08T03:03:07.746Z,9.07
2023-05-08T03:05:39.357Z,7.97
2023-05-08T03:08:15.526Z,8.10
2023-05-08T03:10:45.066Z,9.10
2023-05-08T03:13:12.167Z,8.43
2023-05-08T03:15:45.365Z,8.77
2023-05-08T03:18:16.959Z,8.20
2023-05-08T03:20:47.440Z,8.27
2023-05-08T03:23:15.917Z,7.80
2023-05-08T03:25:43.365Z,8.95
2023-05-08T03:28:12.875Z,8.20
2023-05-08T03:30:41.148Z,9.45
2023-05-08T03:33:12.110Z,7.90
2023-05-08T03:35:39.658Z,8.07
2023-05-08T03:38:08.400Z,7.60
2023-05-08T03:40:38.823Z,8.23
2023-05-08T03:43:07.740Z,7.70
2023-05-08T03:45:39.071Z,8.38
2023-05-08T03:48:07.084Z,7.55
2023-05-08T03:50:35.709Z,7.28
2023-05-08T03:53:02.489Z,8.05
2023-05-08T03:55:30.634Z,8.15
2023-05-08T03:58:16.327Z,7.47
2023-05-08T04:01:03.765Z,8.63
2023-05-08T04:03:34.348Z,7.90
2023-05-08T04:06:14.249Z,8.00
2023-05-08T04:08:47.976Z,9.93
2023-05-08T04:11:21.073Z,8.98
2023-05-08T04:13:50.657Z,7.90
2023-05-08T04:16:24.031Z,9.32
2023-05-08T04:19:05.815Z,8.32
2023-05-08T04:21:55.676Z,8.95
2023-05-08T04:24:27.598Z,8.70
2023-05-08T04:26:54.692Z,7.93
2023-05-08T04:29:21.748Z,8.52
2023-05-08T04:31:50.796Z,7.25
2023-05-08T04:34:18.245Z,8.80
2023-05-08T04:36:45.447Z,8.07
2023-05-08T04:39:11.815Z,8.32
2023-05-08T04:41:38.406Z,7.60
2023-05-08T04:44:05.474Z,7.30
2023-05-08T04:46:32.143Z,8.10
2023-05-08T04:48:58.638Z,8.63
2023-05-08T04:51:27.980Z,8.32
2023-05-08T04:53:54.633Z,8.00
2023-05-08T04:56:22.045Z,8.23
2023-05-08T04:58:48.541Z,8.82
2023-05-08T05:01:15.224Z,9.02
2023-05-08T05:03:41.719Z,8.82
2023-05-08T05:06:08.261Z,9.02
2023-05-08T05:08:34.709Z,8.85
2023-05-08T05:11:01.110Z,8.63
2023-05-08T05:13:28.300Z,9.45
2023-05-08T05:15:55.061Z,8.90
2023-05-08T05:18:22.859Z,9.55
2023-05-08T05:20:50.506Z,9.45
2023-05-08T05:23:17.448Z,9.90
2023-05-08T05:25:44.330Z,9.68
2023-05-08T05:28:10.687Z,9.45
2023-05-08T05:30:37.221Z,8.90
2023-05-08T05:33:03.746Z,9.27
2023-05-08T05:35:30.742Z,9.45
2023-05-08T05:37:57.428Z,9.75
2023-05-08T05:40:23.854Z,10.35
2023-05-08T05:42:50.976Z,9.43
2023-05-08T05:45:18.279Z,8.98
2023-05-08T05:47:49.686Z,10.10
2023-05-08T05:50:18.504Z,10.20
2023-05-08T05:52:46.066Z,9.70
2023-05-08T05:55:13.174Z,9.70
2023-05-08T05:57:39.981Z,10.07
2023-05-08T06:00:07.714Z,9.25
2023-05-08T06:02:41.735Z,9.73
2023-05-08T06:05:11.251Z,10.60
2023-05-08T06:07:38.159Z,10.05
2023-05-08T06:10:04.959Z,10.30
2023-05-08T06:12:31.463Z,9.95
2023-05-08T06:14:58.937Z,9.60
2023-05-08T06:17:25.708Z,10.10
2023-05-08T06:19:55.789Z,10.05
2023-05-08T06:22:23.267Z,9.43
2023-05-08T06:24:53.430Z,9.13
2023-05-08T06:27:20.915Z,9.90
2023-05-08T06:29:50.586Z,9.52
2023-05-08T06:32:17.764Z,10.15
2023-05-08T06:34:44.217Z,9.35
2023-05-08T06:37:10.805Z,9.45
2023-05-08T06:39:37.249Z,9.98
2023-05-08T06:42:06.361Z,10.48
2023-05-08T06:44:37.821Z,9.65
2023-05-08T06:47:04.145Z,9.70
2023-05-08T06:49:30.606Z,9.98
2023-05-08T06:51:58.082Z,9.73
2023-05-08T06:54:24.837Z,9.50
2023-05-08T06:56:53.016Z,9.65
2023-05-08T06:59:19.500Z,9.70
2023-05-08T07:01:45.906Z,8.45
2023-05-08T07:04:12.452Z,9.73
2023-05-08T07:06:38.796Z,9.10
2023-05-08T07:09:05.232Z,9.27
2023-05-08T07:11:31.575Z,9.80
2023-05-08T07:13:57.981Z,9.93
2023-05-08T07:16:24.399Z,9.13
2023-05-08T07:18:50.763Z,10.60
2023-05-08T07:21:18.700Z,9.65
2023-05-08T07:23:45.084Z,9.18
2023-05-08T07:26:11.430Z,9.38
2023-05-08T07:28:37.764Z,8.85
2023-05-08T07:31:07.056Z,9.07
2023-05-08T07:33:34.544Z,9.68
2023-05-08T07:36:01.147Z,8.15
2023-05-08T07:38:27.535Z,9.95
2023-05-08T07:40:57.121Z,9.35
2023-05-08T07:43:24.143Z,10.07
2023-05-08T07:45:51.924Z,10.07
2023-05-08T07:48:18.287Z,10.02
2023-05-08T07:50:44.682Z,11.02
2023-05-08T07:53:11.145Z,9.63
2023-05-08T07:55:37.461Z,9.75
2023-05-08T07:58:03.820Z,10.38
2023-05-08T08:00:30.146Z,9.93
2023-05-08T08:02:57.232Z,9.82
2023-05-08T08:05:23.765Z,9.38
2023-05-08T08:07:50.132Z,9.90
2023-05-08T08:10:16.925Z,9.65
2023-05-08T08:12:43.265Z,10.10
2023-05-08T08:15:10.033Z,9.65
2023-05-08T08:17:37.459Z,9.57
2023-05-08T08:20:04.465Z,8.18
2023-05-08T08:22:30.817Z,9.40
2023-05-08T08:24:57.377Z,9.57
2023-05-08T08:27:24.011Z,9.43
2023-05-08T08:29:52.529Z,9.45
2023-05-08T08:32:25.105Z,9.25
2023-05-08T08:34:51.526Z,9.82
2023-05-08T08:37:17.877Z,8.93
2023-05-08T08:39:44.209Z,9.27
2023-05-08T08:42:12.152Z,9.38
2023-05-08T08:44:40.089Z,8.70
2023-05-08T08:47:10.210Z,8.85
2023-05-08T08:49:42.814Z,10.20
2023-05-08T08:52:26.706Z,10.27
2023-05-08T08:54:55.308Z,9.63
2023-05-08T08:57:22.959Z,8.77
2023-05-08T08:59:49.740Z,10.20
2023-05-08T09:02:19.299Z,10.90
2023-05-08T09:04:45.742Z,12.40
2023-05-08T09:07:12.405Z,11.52
2023-05-08T09:09:44.334Z,10.32
2023-05-08T09:12:12.331Z,10.35
2023-05-08T09:14:38.704Z,10.63
2023-05-08T09:17:05.231Z,11.05
2023-05-08T09:19:32.020Z,10.25
2023-05-08T09:22:01.581Z,10.52
2023-05-08T09:24:54.383Z,10.50
2023-05-08T09:27:22.295Z,10.20
2023-05-08T09:30:08.410Z,10.45
2023-05-08T09:32:36.858Z,10.38
2023-05-08T09:35:03.779Z,10.73
2023-05-08T09:37:30.491Z,10.10
2023-05-08T09:40:19.748Z,11.85
2023-05-08T09:42:47.483Z,11.48
2023-05-08T09:45:35.154Z,12.07
2023-05-08T09:48:01.581Z,11.48
2023-05-08T09:50:28.291Z,12.57
2023-05-08T09:52:54.849Z,11.77
2023-05-08T09:55:21.456Z,10.70
2023-05-08T09:57:57.040Z,10.20
2023-05-08T10:00:27.769Z,10.98
2023-05-08T10:02:58.781Z,10.02
2023-05-08T10:05:31.645Z,11.60
2023-05-08T10:08:17.171Z,12.23
2023-05-08T10:10:43.603Z,9.93
2023-05-08T10:13:10.063Z,9.52
2023-05-08T10:15:38.498Z,9.73
2023-05-08T10:18:06.727Z,11.18
2023-05-08T10:20:34.981Z,11.35
2023-05-08T10:23:03.279Z,11.45
2023-05-08T10:25:35.442Z,11.38
2023-05-08T10:28:29.034Z,12.48
2023-05-08T10:30:59.642Z,12.02
2023-05-08T10:33:31.458Z,10.25
2023-05-08T10:35:58.719Z,11.82
2023-05-08T10:38:26.523Z,10.88
2023-05-08T10:40:57.691Z,11.07
2023-05-08T10:43:29.123Z,11.13
2023-05-08T10:45:57.603Z,12.23
2023-05-08T10:48:32.888Z,12.32
2023-05-08T10:51:21.406Z,12.30
2023-05-08T10:54:01.929Z,12.80
2023-05-08T10:56:29.140Z,13.27
2023-05-08T10:58:57.552Z,13.07
2023-05-08T11:01:24.796Z,12.07
2023-05-08T11:03:52.270Z,14.32
2023-05-08T11:06:42.431Z,12.27
2023-05-08T11:09:08.809Z,13.15
2023-05-08T11:11:39.171Z,13.98
2023-05-08T11:14:08.486Z,13.40
2023-05-08T11:16:53.148Z,14.68
2023-05-08T11:19:21.397Z,13.15
2023-05-08T11:22:18.844Z,13.68
2023-05-08T11:24:52.052Z,14.27
2023-05-08T11:27:30.524Z,14.00
2023-05-08T11:30:19.693Z,13.60
2023-05-08T11:33:04.832Z,12.65
2023-05-08T11:35:51.582Z,13.23
2023-05-08T11:38:19.431Z,13.23
2023-05-08T11:40:48.357Z,13.48
2023-05-08T11:43:31.992Z,14.48
2023-05-08T11:46:04.181Z,14.93
2023-05-08T11:48:31.647Z,14.07
2023-05-08T11:50:59.919Z,14.20
2023-05-08T11:53:26.582Z,14.60
2023-05-08T11:55:53.577Z,14.07
2023-05-08T11:58:20.016Z,14.60
2023-05-08T12:00:47.457Z,13.68
2023-05-08T12:03:15.275Z,14.30
2023-05-08T12:05:42.004Z,14.23
2023-05-08T12:08:09.740Z,13.50
2023-05-08T12:10:46.953Z,14.07
2023-05-08T12:13:21.376Z,12.68
2023-05-08T12:15:56.366Z,13.13
2023-05-08T12:18:24.461Z,12.68
2023-05-08T12:20:53.144Z,13.68
2023-05-08T12:23:19.657Z,13.05
2023-05-08T12:25:46.341Z,12.27
2023-05-08T12:28:12.754Z,11.50
2023-05-08T12:30:39.308Z,11.63
2023-05-08T12:33:06.613Z,12.88
2023-05-08T12:35:33.531Z,12.30
2023-05-08T12:38:05.386Z,11.70
2023-05-08T12:40:39.882Z,11.75
2023-05-08T12:43:06.230Z,11.07
2023-05-08T12:45:39.263Z,12.57
2023-05-08T12:50:41.613Z,10.85
2023-05-08T12:53:09.915Z,11.70
2023-05-08T12:55:38.752Z,11.75
2023-05-08T12:58:15.343Z,10.70
2023-05-08T13:00:44.426Z,9.63
2023-05-08T13:03:13.917Z,11.43
2023-05-08T13:05:45.616Z,11.23
2023-05-08T13:08:12.219Z,11.02
2023-05-08T13:10:46.568Z,11.02
2023-05-08T13:13:14.114Z,10.95
2023-05-08T13:15:40.617Z,10.30
2023-05-08T13:18:09.909Z,11.15
2023-05-08T13:20:37.087Z,10.32
2023-05-08T13:23:04.120Z,12.40
2023-05-08T13:25:31.201Z,11.52
2023-05-08T13:27:58.668Z,12.88
2023-05-08T13:30:25.536Z,13.68
2023-05-08T13:32:52.550Z,11.30
2023-05-08T13:35:19.139Z,12.40
2023-05-08T13:37:45.927Z,11.40
2023-05-08T13:40:13.204Z,13.85
2023-05-08T13:42:39.638Z,12.88
2023-05-08T13:45:07.438Z,12.27
2023-05-08T13:47:34.381Z,13.82
2023-05-08T13:50:00.774Z,13.18
2023-05-08T13:52:30.345Z,12.43
2023-05-08T13:54:56.703Z,14.02
2023-05-08T13:57:23.112Z,13.02
2023-05-08T13:59:49.438Z,13.27
2023-05-08T14:02:15.916Z,14.27
2023-05-08T14:04:42.403Z,13.32
2023-05-08T14:07:08.768Z,16.73
2023-05-08T14:09:35.095Z,14.98
2023-05-08T14:12:01.441Z,14.18
2023-05-08T14:14:27.782Z,13.57
2023-05-08T14:16:54.176Z,14.25
2023-05-08T14:19:20.539Z,13.50
2023-05-08T14:21:46.954Z,12.43
2023-05-08T14:24:13.303Z,14.55
2023-05-08T14:26:39.704Z,13.45
2023-05-08T14:29:06.042Z,14.35
2023-05-08T14:31:32.523Z,11.77
2023-05-08T14:33:58.909Z,12.07
2023-05-08T14:36:25.224Z,12.90
2023-05-08T14:38:51.578Z,13.77
2023-05-08T14:41:17.947Z,13.98
2023-05-08T14:43:44.263Z,13.98
2023-05-08T14:46:10.640Z,13.05
2023-05-08T14:48:36.989Z,11.88
2023-05-08T14:51:03.380Z,12.13
2023-05-08T14:53:29.805Z,13.43
2023-05-08T14:55:56.576Z,11.57
2023-05-08T14:58:23.094Z,13.25
2023-05-08T15:00:49.537Z,12.82
2023-05-08T15:03:16.130Z,14.00
2023-05-08T15:05:43.479Z,13.68
2023-05-08T15:08:10.088Z,14.75
2023-05-08T15:10:36.625Z,13.82
2023-05-08T15:13:03.166Z,14.30
2023-05-08T15:15:29.594Z,13.23
2023-05-08T15:17:56.043Z,12.98
2023-05-08T15:20:22.925Z,13.25
2023-05-08T15:22:49.313Z,13.23
2023-05-08T15:25:16.266Z,13.02
2023-05-08T15:27:42.813Z,13.65
2023-05-08T15:30:09.720Z,13.18
2023-05-08T15:32:36.102Z,11.20
2023-05-08T15:35:03.181Z,10.48
2023-05-08T15:37:29.526Z,11.52
2023-05-08T15:39:56.515Z,9.93
2023-05-08T15:42:22.876Z,9.00
2023-05-08T15:47:19.388Z,7.53
2023-05-08T15:49:45.749Z,7.45
2023-05-08T15:52:12.244Z,7.60
2023-05-08T15:54:38.614Z,6.70
2023-05-08T15:57:05.653Z,6.78
2023-05-08T15:59:32.004Z,6.18
2023-05-08T16:01:58.318Z,5.25
2023-05-08T16:04:24.675Z,4.88
2023-05-08T16:06:51.037Z,4.95
2023-05-08T16:09:17.365Z,5.50
2023-05-08T16:11:43.692Z,6.35
2023-05-08T16:14:10.061Z,5.82
2023-05-08T16:16:38.196Z,6.30
2023-05-08T16:19:04.537Z,6.22
2023-05-08T16:21:31.389Z,6.93
2023-05-08T16:23:58.033Z,7.10
2023-05-08T16:26:24.389Z,7.80
2023-05-08T16:28:50.794Z,7.22
2023-05-08T16:31:17.279Z,7.72
2023-05-08T16:33:44.040Z,8.70
2023-05-08T16:36:10.381Z,7.15
2023-05-08T16:38:36.815Z,7.60
2023-05-08T16:41:04.310Z,7.78
2023-05-08T16:43:30.837Z,8.23
2023-05-08T16:45:59.233Z,7.78
2023-05-08T16:48:26.650Z,7.70
2023-05-08T16:50:52.974Z,8.70
2023-05-08T16:53:19.449Z,8.65
2023-05-08T16:55:45.887Z,9.30
2023-05-08T16:58:12.941Z,9.68
2023-05-08T17:00:39.364Z,10.48
2023-05-08T17:03:05.853Z,8.85
2023-05-08T17:05:33.277Z,10.07
2023-05-08T17:07:59.620Z,9.82
2023-05-08T17:10:26.027Z,9.82
2023-05-08T17:12:54.243Z,9.60
2023-05-08T17:15:20.763Z,9.48
2023-05-08T17:17:49.259Z,8.35
2023-05-08T17:20:16.188Z,9.32
2023-05-08T17:22:42.725Z,10.00
2023-05-08T17:25:09.215Z,9.45
2023-05-08T17:27:36.762Z,10.52
2023-05-08T17:30:03.923Z,10.15
2023-05-08T17:32:30.336Z,10.77
2023-05-08T17:34:56.701Z,10.93
2023-05-08T17:37:23.072Z,10.75
2023-05-08T17:39:49.391Z,10.13
2023-05-08T17:42:15.809Z,9.32
2023-05-08T17:44:42.147Z,10.68
2023-05-08T17:47:09.121Z,9.70
2023-05-08T17:49:35.472Z,9.82
2023-05-08T17:52:03.393Z,10.77
2023-05-08T17:54:29.752Z,11.15
2023-05-08T17:56:56.126Z,10.77
2023-05-08T17:59:22.521Z,10.48
2023-05-08T18:01:48.972Z,10.32
2023-05-08T18:04:15.311Z,10.35
2023-05-08T18:06:43.280Z,10.65
2023-05-08T18:09:09.655Z,9.95
2023-05-08T18:11:36.012Z,12.25
2023-05-08T18:14:02.336Z,10.63
2023-05-08T18:16:28.854Z,11.25
2023-05-08T18:18:55.492Z,11.57
2023-05-08T18:21:21.818Z,11.00
2023-05-08T18:23:48.219Z,11.18
2023-05-08T18:26:15.358Z,10.77
2023-05-08T18:28:42.395Z,11.18
2023-05-08T18:31:08.872Z,11.18
2023-05-08T18:33:36.826Z,10.27
2023-05-08T18:36:05.027Z,11.75
2023-05-08T18:38:32.460Z,10.45
2023-05-08T18:41:01.822Z,9.38
2023-05-08T18:43:28.155Z,11.60
2023-05-08T18:45:54.521Z,11.10
2023-05-08T18:48:20.870Z,9.98
2023-05-08T18:50:47.216Z,8.80
2023-05-08T18:53:14.458Z,9.68
2023-05-08T18:55:41.568Z,13.32
2023-05-08T18:58:07.905Z,15.82
2023-05-08T19:00:34.325Z,10.57
2023-05-08T19:03:00.825Z,10.95
2023-05-08T19:05:27.420Z,11.20
2023-05-08T19:07:53.773Z,10.82
2023-05-08T19:10:20.191Z,9.43
2023-05-08T19:12:47.027Z,9.73
2023-05-08T19:15:14.024Z,12.10
2023-05-08T19:17:41.328Z,9.45
2023-05-08T19:20:08.238Z,10.27
2023-05-08T19:22:35.984Z,9.48
2023-05-08T19:25:03.006Z,9.88
2023-05-08T19:27:29.360Z,10.98
2023-05-08T19:29:55.854Z,11.82
2023-05-08T19:32:22.273Z,10.85
2023-05-08T19:34:48.649Z,8.70
2023-05-08T19:37:15.039Z,9.05
2023-05-08T19:39:41.379Z,12.15
2023-05-08T19:42:10.127Z,10.80
2023-05-08T19:44:36.496Z,12.02
2023-05-08T19:47:04.123Z,10.40
2023-05-08T19:49:30.832Z,11.27
2023-05-08T19:51:57.155Z,10.85
2023-05-08T19:54:23.631Z,12.38
2023-05-08T19:56:50.040Z,10.07
2023-05-08T19:59:16.460Z,9.65
2023-05-08T20:01:43.606Z,10.90
2023-05-08T20:04:10.058Z,11.60
2023-05-08T20:06:38.145Z,10.52
2023-05-08T20:09:04.886Z,9.25
2023-05-08T20:11:31.210Z,10.38
2023-05-08T20:13:57.606Z,9.23
2023-05-08T20:16:24.150Z,10.70
2023-05-08T20:18:50.558Z,10.98
2023-05-08T20:21:16.930Z,9.95
2023-05-08T20:23:43.718Z,9.77
2023-05-08T20:26:10.266Z,9.88
2023-05-08T20:28:36.818Z,10.95
2023-05-08T20:31:03.611Z,10.65
2023-05-08T20:33:30.153Z,10.60
2023-05-08T20:35:56.482Z,10.82
2023-05-08T20:38:22.810Z,10.70
2023-05-08T20:40:49.172Z,11.88
2023-05-08T20:43:16.760Z,12.35
2023-05-08T20:45:43.347Z,11.95
2023-05-08T20:48:10.064Z,11.90
2023-05-08T20:50:36.658Z,13.13
2023-05-08T20:53:03.082Z,13.32
2023-05-08T20:55:29.454Z,12.90
2023-05-08T20:57:55.844Z,11.95
2023-05-08T21:00:22.283Z,11.68
2023-05-08T21:02:48.666Z,12.70
2023-05-08T21:05:15.343Z,13.18
2023-05-08T21:07:42.347Z,11.18
2023-05-08T21:10:09.328Z,12.88
2023-05-08T21:12:35.669Z,12.50
2023-05-08T21:15:02.097Z,12.77
2023-05-08T21:17:28.473Z,11.32
2023-05-08T21:19:56.873Z,10.15
2023-05-08T21:22:23.264Z,12.13
2023-05-08T21:24:49.627Z,10.93
2023-05-08T21:27:15.981Z,12.77
2023-05-08T21:29:42.290Z,11.75
2023-05-08T21:32:10.274Z,11.13
2023-05-08T21:34:36.922Z,10.93
2023-05-08T21:37:03.361Z,11.48
2023-05-08T21:39:29.680Z,11.68
2023-05-08T21:41:55.999Z,11.77
2023-05-08T21:44:22.367Z,12.13
2023-05-08T21:46:48.761Z,13.55
2023-05-08T21:49:15.312Z,12.00
2023-05-08T21:51:41.678Z,12.25
2023-05-08T21:54:08.842Z,13.77
2023-05-08T21:56:35.208Z,12.98
2023-05-08T21:59:01.559Z,11.98
2023-05-08T22:01:28.018Z,11.77
2023-05-08T22:03:54.525Z,11.65
2023-05-08T22:06:20.989Z,13.98
2023-05-08T22:08:47.311Z,13.18
2023-05-08T22:11:13.694Z,12.73
2023-05-08T22:13:40.003Z,13.52
2023-05-08T22:16:06.975Z,14.25
2023-05-08T22:18:33.313Z,12.52
2023-05-08T22:20:59.720Z,13.23
2023-05-08T22:23:26.054Z,15.40
2023-05-08T22:25:52.401Z,14.68
2023-05-08T22:28:18.774Z,12.60
2023-05-08T22:30:45.097Z,13.77
2023-05-08T22:33:11.489Z,13.13
2023-05-08T22:35:37.952Z,13.95
2023-05-08T22:38:04.282Z,14.27
2023-05-08T22:40:30.721Z,13.38
2023-05-08T22:42:58.614Z,14.73
2023-05-08T22:45:25.096Z,14.52
2023-05-08T22:47:51.514Z,13.55
2023-05-08T22:50:18.882Z,14.18
2023-05-08T22:52:45.322Z,13.98
2023-05-08T22:55:12.370Z,13.45
2023-05-08T22:57:38.811Z,13.98
2023-05-08T23:00:07.071Z,14.60
2023-05-08T23:02:34.482Z,13.90
2023-05-08T23:05:01.988Z,13.73
2023-05-08T23:07:28.981Z,13.18
2023-05-08T23:09:55.360Z,14.45
2023-05-08T23:12:21.857Z,13.43
2023-05-08T23:14:48.186Z,14.68
2023-05-08T23:17:14.508Z,13.52
2023-05-08T23:19:42.382Z,13.88
2023-05-08T23:22:09.267Z,14.02
2023-05-08T23:24:36.517Z,14.63
2023-05-08T23:27:03.007Z,12.25
2023-05-08T23:29:29.477Z,13.82
2023-05-08T23:31:55.823Z,13.85
2023-05-08T23:34:22.429Z,12.25
2023-05-08T23:36:48.765Z,15.73
2023-05-08T23:39:15.208Z,13.50
2023-05-08T23:41:41.728Z,13.75
2023-05-08T23:44:08.114Z,15.98
2023-05-08T23:46:34.474Z,14.18
2023-05-08T23:49:01.037Z,13.23
2023-05-08T23:51:27.358Z,15.68
2023-05-08T23:53:53.700Z,13.18
2023-05-08T23:56:20.033Z,15.07
2023-05-08T23:58:46.448Z,14.50
